Park Rapids, Minnesota
Current Conditions -  °F | °C
As of 7:53 PM on Friday 24 Oct 2014 (Local Time) from KPKD Reporting Station
Clear Clear  
Wind Chill: 56°   Ceiling: Unl
Heat Index: 56°   Visibility: 10mi
Dew Point: 41°   Wind: 10mph
Humidity: 57%   Direction: 270°W
Pressure: 29.81"   Gusts: NA
Location:  46.92°N, 95.06°W
Report Text: KPKD 250053Z AUTO 27009KT 10SM CLR 13/05 A2981 RMK AO2 SLP103 T01330050 TSNO
Loading
Personal Weather Stations






























Interactive Weather Map New forecast layout! Learn more

10-Day Weather Forecast

Advertisements
Track Severe Weather on mobile